sensor_id;sensor_type;location;lat;lon;timestamp;pressure;altitude;pressure_sealevel;temperature;humidity
71643;BME280;59438;45.014;39.006;2023-02-28T00:02:00;101948.59;;;11.99;44.09
71643;BME280;59438;45.014;39.006;2023-02-28T00:04:26;101944.16;;;12.00;43.26
71643;BME280;59438;45.014;39.006;2023-02-28T00:06:53;101942.22;;;12.08;43.87
71643;BME280;59438;45.014;39.006;2023-02-28T00:09:19;101937.72;;;12.13;43.74
71643;BME280;59438;45.014;39.006;2023-02-28T00:11:45;101937.59;;;12.19;43.47
71643;BME280;59438;45.014;39.006;2023-02-28T00:14:13;101925.16;;;12.24;42.76
71643;BME280;59438;45.014;39.006;2023-02-28T00:16:39;101936.41;;;12.31;43.37
71643;BME280;59438;45.014;39.006;2023-02-28T00:19:06;101931.03;;;12.36;42.46
71643;BME280;59438;45.014;39.006;2023-02-28T00:21:32;101931.75;;;12.42;43.24
71643;BME280;59438;45.014;39.006;2023-02-28T00:23:58;101934.25;;;12.47;43.20
71643;BME280;59438;45.014;39.006;2023-02-28T00:26:25;101929.75;;;12.52;42.83
71643;BME280;59438;45.014;39.006;2023-02-28T00:28:51;101932.25;;;12.57;42.17
71643;BME280;59438;45.014;39.006;2023-02-28T00:31:19;101932.97;;;12.63;41.66
71643;BME280;59438;45.014;39.006;2023-02-28T00:33:46;101930.25;;;12.66;41.93
71643;BME280;59438;45.014;39.006;2023-02-28T00:36:12;101942.44;;;12.70;42.35
71643;BME280;59438;45.014;39.006;2023-02-28T00:38:39;101928.44;;;12.68;41.60
71643;BME280;59438;45.014;39.006;2023-02-28T00:41:06;101935.25;;;12.77;42.12
71643;BME280;59438;45.014;39.006;2023-02-28T00:43:34;101931.66;;;12.80;41.89
71643;BME280;59438;45.014;39.006;2023-02-28T00:46:01;101934.22;;;12.83;41.87
71643;BME280;59438;45.014;39.006;2023-02-28T00:48:28;101937.72;;;12.83;41.66
71643;BME280;59438;45.014;39.006;2023-02-28T00:50:55;101935.88;;;12.87;41.86
71643;BME280;59438;45.014;39.006;2023-02-28T00:53:21;101927.88;;;12.88;41.78
71643;BME280;59438;45.014;39.006;2023-02-28T00:55:48;101936.59;;;12.92;41.76
71643;BME280;59438;45.014;39.006;2023-02-28T00:58:15;101912.19;;;12.84;41.38
71643;BME280;59438;45.014;39.006;2023-02-28T01:00:41;101939.09;;;12.97;41.07
71643;BME280;59438;45.014;39.006;2023-02-28T01:03:07;101926.72;;;12.99;41.56
71643;BME280;59438;45.014;39.006;2023-02-28T01:05:35;101931.13;;;13.00;40.73
71643;BME280;59438;45.014;39.006;2023-02-28T01:08:01;101914.66;;;12.90;40.89
71643;BME280;59438;45.014;39.006;2023-02-28T01:10:28;101941.66;;;13.00;41.30
71643;BME280;59438;45.014;39.006;2023-02-28T01:12:54;101932.06;;;12.97;41.16
71643;BME280;59438;45.014;39.006;2023-02-28T01:15:21;101932.13;;;12.94;41.35
71643;BME280;59438;45.014;39.006;2023-02-28T01:17:47;101929.59;;;12.91;40.99
71643;BME280;59438;45.014;39.006;2023-02-28T01:20:14;101927.88;;;12.88;41.28
71643;BME280;59438;45.014;39.006;2023-02-28T01:22:42;101932.41;;;12.85;41.41
71643;BME280;59438;45.014;39.006;2023-02-28T01:25:08;101924.66;;;12.79;41.30
71643;BME280;59438;45.014;39.006;2023-02-28T01:27:34;101936.88;;;12.81;41.20
71643;BME280;59438;45.014;39.006;2023-02-28T01:30:01;101936.91;;;12.80;41.15
71643;BME280;59438;45.014;39.006;2023-02-28T01:32:27;101936.06;;;12.79;41.05
71643;BME280;59438;45.014;39.006;2023-02-28T01:34:54;101944.94;;;12.77;40.97
71643;BME280;59438;45.014;39.006;2023-02-28T01:37:20;101955.38;;;12.80;41.15
71643;BME280;59438;45.014;39.006;2023-02-28T01:39:48;101957.97;;;12.81;40.68
71643;BME280;59438;45.014;39.006;2023-02-28T01:42:14;101960.63;;;12.81;41.17
71643;BME280;59438;45.014;39.006;2023-02-28T01:45:18;101958.78;;;12.85;40.46
71643;BME280;59438;45.014;39.006;2023-02-28T01:47:48;101943.00;;;12.82;40.56
71643;BME280;59438;45.014;39.006;2023-02-28T01:50:19;101957.97;;;12.81;39.97
71643;BME280;59438;45.014;39.006;2023-02-28T01:52:48;101967.53;;;12.85;40.25
71643;BME280;59438;45.014;39.006;2023-02-28T01:55:18;101972.72;;;12.88;40.44
71643;BME280;59438;45.014;39.006;2023-02-28T01:57:49;101971.78;;;12.91;40.39
71643;BME280;59438;45.014;39.006;2023-02-28T02:00:19;101956.00;;;12.89;40.61
71643;BME280;59438;45.014;39.006;2023-02-28T02:02:50;101963.75;;;12.96;40.13
71643;BME280;59438;45.014;39.006;2023-02-28T02:05:19;101930.78;;;12.79;40.01
71643;BME280;59438;45.014;39.006;2023-02-28T02:07:48;101951.56;;;12.92;40.26
71643;BME280;59438;45.014;39.006;2023-02-28T02:10:18;101961.09;;;12.97;40.31
71643;BME280;59438;45.014;39.006;2023-02-28T02:12:57;101953.09;;;12.99;39.67
71643;BME280;59438;45.014;39.006;2023-02-28T02:15:32;101960.97;;;13.00;39.37
71643;BME280;59438;45.014;39.006;2023-02-28T02:18:01;101957.19;;;13.10;39.77
71643;BME280;59438;45.014;39.006;2023-02-28T02:21:09;101949.44;;;13.04;39.91
71643;BME280;59438;45.014;39.006;2023-02-28T02:24:08;101966.94;;;13.07;39.75
71643;BME280;59438;45.014;39.006;2023-02-28T02:33:03;101965.31;;;13.03;39.61
71643;BME280;59438;45.014;39.006;2023-02-28T02:35:35;101960.16;;;12.98;39.56
71643;BME280;59438;45.014;39.006;2023-02-28T02:38:09;101960.19;;;12.97;39.37
71643;BME280;59438;45.014;39.006;2023-02-28T02:40:43;101956.72;;;12.95;39.94
71643;BME280;59438;45.014;39.006;2023-02-28T02:43:15;101936.03;;;12.81;39.51
71643;BME280;59438;45.014;39.006;2023-02-28T02:45:45;101957.84;;;12.86;39.82
71643;BME280;59438;45.014;39.006;2023-02-28T02:48:16;101955.22;;;12.86;40.21
71643;BME280;59438;45.014;39.006;2023-02-28T02:50:49;101943.94;;;12.81;39.73
71643;BME280;59438;45.014;39.006;2023-02-28T02:53:18;101955.34;;;12.81;40.33
71643;BME280;59438;45.014;39.006;2023-02-28T02:55:49;101956.31;;;12.79;39.81
71643;BME280;59438;45.014;39.006;2023-02-28T02:58:18;101957.22;;;12.76;39.86
71643;BME280;59438;45.014;39.006;2023-02-28T03:00:50;101952.91;;;12.74;39.63
71643;BME280;59438;45.014;39.006;2023-02-28T03:03:19;101953.81;;;12.73;40.05
71643;BME280;59438;45.014;39.006;2023-02-28T03:05:49;101943.34;;;12.69;39.35
71643;BME280;59438;45.014;39.006;2023-02-28T03:08:16;101951.19;;;12.73;39.73
71643;BME280;59438;45.014;39.006;2023-02-28T03:10:44;101946.78;;;12.73;39.81
71643;BME280;59438;45.014;39.006;2023-02-28T03:16:37;101946.63;;;12.78;39.06
71643;BME280;59438;45.014;39.006;2023-02-28T03:19:29;101943.16;;;12.77;39.06
71643;BME280;59438;45.014;39.006;2023-02-28T03:22:14;101945.78;;;12.77;38.62
71643;BME280;59438;45.014;39.006;2023-02-28T03:24:45;101958.81;;;12.83;38.64
71643;BME280;59438;45.014;39.006;2023-02-28T03:27:17;101942.19;;;12.80;39.00
71643;BME280;59438;45.014;39.006;2023-02-28T03:29:51;101948.13;;;12.88;38.58
71643;BME280;59438;45.014;39.006;2023-02-28T03:32:25;101945.53;;;12.86;38.84
71643;BME280;59438;45.014;39.006;2023-02-28T03:34:58;101945.41;;;12.91;39.10
71643;BME280;59438;45.014;39.006;2023-02-28T03:37:29;101942.81;;;12.89;39.03
71643;BME280;59438;45.014;39.006;2023-02-28T03:39:58;101926.38;;;12.80;39.00
71643;BME280;59438;45.014;39.006;2023-02-28T03:42:28;101926.31;;;12.83;38.88
71643;BME280;59438;45.014;39.006;2023-02-28T03:44:59;101905.41;;;12.75;38.39
71643;BME280;59438;45.014;39.006;2023-02-28T03:47:29;101933.88;;;12.95;38.37
71643;BME280;59438;45.014;39.006;2023-02-28T03:50:01;101936.44;;;12.98;38.58
71643;BME280;59438;45.014;39.006;2023-02-28T03:52:33;101937.19;;;13.03;38.10
71643;BME280;59438;45.014;39.006;2023-02-28T03:55:02;101947.66;;;13.05;38.71
71643;BME280;59438;45.014;39.006;2023-02-28T03:57:35;101935.44;;;13.02;37.90
71643;BME280;59438;45.014;39.006;2023-02-28T04:00:06;101937.09;;;13.05;38.27
71643;BME280;59438;45.014;39.006;2023-02-28T04:02:34;101942.31;;;13.08;38.69
71643;BME280;59438;45.014;39.006;2023-02-28T04:05:01;101934.38;;;13.09;38.83
71643;BME280;59438;45.014;39.006;2023-02-28T04:07:30;101934.44;;;13.06;38.94
71643;BME280;59438;45.014;39.006;2023-02-28T04:09:57;101931.72;;;13.09;38.83
71643;BME280;59438;45.014;39.006;2023-02-28T04:12:24;101930.91;;;13.07;39.29
71643;BME280;59438;45.014;39.006;2023-02-28T04:14:50;101919.81;;;12.95;39.13
71643;BME280;59438;45.014;39.006;2023-02-28T04:17:17;101931.91;;;13.03;39.55
71643;BME280;59438;45.014;39.006;2023-02-28T04:19:43;101953.03;;;13.02;39.12
71643;BME280;59438;45.014;39.006;2023-02-28T04:22:10;101959.28;;;12.99;39.39
71643;BME280;59438;45.014;39.006;2023-02-28T04:24:37;101959.28;;;12.99;39.57
71643;BME280;59438;45.014;39.006;2023-02-28T04:27:04;101945.41;;;12.91;39.42
71643;BME280;59438;45.014;39.006;2023-02-28T04:29:31;101960.25;;;12.95;39.04
71643;BME280;59438;45.014;39.006;2023-02-28T04:31:58;101966.34;;;12.97;39.16
71643;BME280;59438;45.014;39.006;2023-02-28T04:34:25;101962.06;;;12.93;39.32
71643;BME280;59438;45.014;39.006;2023-02-28T04:36:52;101970.72;;;12.98;39.41
71643;BME280;59438;45.014;39.006;2023-02-28T04:39:19;101975.09;;;12.99;39.23
71643;BME280;59438;45.014;39.006;2023-02-28T04:41:47;101976.81;;;13.00;38.87
71643;BME280;59438;45.014;39.006;2023-02-28T04:44:14;101941.22;;;12.84;39.42
71643;BME280;59438;45.014;39.006;2023-02-28T04:46:41;101970.53;;;13.04;39.08
71643;BME280;59438;45.014;39.006;2023-02-28T04:49:08;101979.22;;;13.09;38.94
71643;BME280;59438;45.014;39.006;2023-02-28T04:51:35;101979.25;;;13.08;39.15
71643;BME280;59438;45.014;39.006;2023-02-28T04:54:02;101978.25;;;13.12;39.50
71643;BME280;59438;45.014;39.006;2023-02-28T04:56:28;101979.97;;;13.13;39.44
71643;BME280;59438;45.014;39.006;2023-02-28T04:58:56;101990.38;;;13.18;39.36
71643;BME280;59438;45.014;39.006;2023-02-28T05:01:24;101978.25;;;13.12;39.18
71643;BME280;59438;45.014;39.006;2023-02-28T05:03:51;101978.13;;;13.17;39.28
71643;BME280;59438;45.014;39.006;2023-02-28T05:06:23;101973.00;;;13.10;39.01
71643;BME280;59438;45.014;39.006;2023-02-28T05:08:49;101993.69;;;13.26;39.48
71643;BME280;59438;45.014;39.006;2023-02-28T05:11:18;101984.28;;;13.16;39.29
71643;BME280;59438;45.014;39.006;2023-02-28T05:13:46;101988.63;;;13.18;39.43
71643;BME280;59438;45.014;39.006;2023-02-28T05:16:14;102002.28;;;13.34;39.13
71643;BME280;59438;45.014;39.006;2023-02-28T05:18:40;101999.53;;;13.39;39.35
71643;BME280;59438;45.014;39.006;2023-02-28T05:21:24;102013.41;;;13.45;39.04
71643;BME280;59438;45.014;39.006;2023-02-28T05:23:50;101994.94;;;13.45;39.41
71643;BME280;59438;45.014;39.006;2023-02-28T05:26:17;102000.09;;;13.50;39.28
71643;BME280;59438;45.014;39.006;2023-02-28T05:28:43;101990.63;;;13.43;39.39
71643;BME280;59438;45.014;39.006;2023-02-28T05:31:11;102003.47;;;13.55;39.46
71643;BME280;59438;45.014;39.006;2023-02-28T05:33:39;101995.78;;;13.47;39.16
71643;BME280;59438;45.014;39.006;2023-02-28T05:36:06;101975.66;;;13.43;39.65
71643;BME280;59438;45.014;39.006;2023-02-28T05:38:33;101983.56;;;13.43;39.45
71643;BME280;59438;45.014;39.006;2023-02-28T05:40:59;102005.78;;;13.66;39.62
71643;BME280;59438;45.014;39.006;2023-02-28T05:43:26;102021.44;;;13.74;39.48
71643;BME280;59438;45.014;39.006;2023-02-28T05:45:52;102021.28;;;13.78;39.38
71643;BME280;59438;45.014;39.006;2023-02-28T05:48:18;102021.16;;;13.81;39.63
71643;BME280;59438;45.014;39.006;2023-02-28T05:50:46;101973.66;;;13.52;39.80
71643;BME280;59438;45.014;39.006;2023-02-28T05:53:12;102019.16;;;13.89;39.36
71643;BME280;59438;45.014;39.006;2023-02-28T05:55:39;102016.41;;;13.94;39.36
71643;BME280;59438;45.014;39.006;2023-02-28T05:58:05;102016.31;;;13.97;39.30
71643;BME280;59438;45.014;39.006;2023-02-28T06:00:32;102009.19;;;13.99;39.23
71643;BME280;59438;45.014;39.006;2023-02-28T06:02:58;101989.03;;;13.97;39.31
71643;BME280;59438;45.014;39.006;2023-02-28T06:05:24;101983.09;;;13.90;38.97
71643;BME280;59438;45.014;39.006;2023-02-28T06:07:52;102004.47;;;14.10;39.16
71643;BME280;59438;45.014;39.006;2023-02-28T06:10:19;102010.44;;;14.16;39.17
71643;BME280;59438;45.014;39.006;2023-02-28T06:12:45;102023.50;;;14.20;39.21
71643;BME280;59438;45.014;39.006;2023-02-28T06:15:13;102022.44;;;14.27;38.90
71643;BME280;59438;45.014;39.006;2023-02-28T06:17:40;102023.94;;;14.35;38.84
71643;BME280;59438;45.014;39.006;2023-02-28T06:20:07;102016.84;;;14.37;38.74
71643;BME280;59438;45.014;39.006;2023-02-28T06:22:35;102023.50;;;14.48;38.64
71643;BME280;59438;45.014;39.006;2023-02-28T06:25:03;102026.81;;;14.55;38.42
71643;BME280;59438;45.014;39.006;2023-02-28T06:27:30;102021.41;;;14.60;38.89
71643;BME280;59438;45.014;39.006;2023-02-28T06:29:57;102022.69;;;14.75;38.53
71643;BME280;59438;45.014;39.006;2023-02-28T06:32:23;102022.38;;;14.84;38.40
71643;BME280;59438;45.014;39.006;2023-02-28T06:34:50;102022.41;;;14.82;38.20
71643;BME280;59438;45.014;39.006;2023-02-28T06:37:16;102028.22;;;14.94;38.18
71643;BME280;59438;45.014;39.006;2023-02-28T06:39:43;102028.66;;;15.06;37.93
71643;BME280;59438;45.014;39.006;2023-02-28T06:42:11;102028.44;;;15.13;37.93
71643;BME280;59438;45.014;39.006;2023-02-28T06:44:38;102029.25;;;15.15;38.12
71643;BME280;59438;45.014;39.006;2023-02-28T06:47:05;102027.47;;;15.15;38.13
71643;BME280;59438;45.014;39.006;2023-02-28T06:49:33;102030.06;;;15.17;38.23
71643;BME280;59438;45.014;39.006;2023-02-28T06:52:00;102032.81;;;15.14;38.39
71643;BME280;59438;45.014;39.006;2023-02-28T06:54:26;102016.44;;;15.02;38.55
71643;BME280;59438;45.014;39.006;2023-02-28T06:56:53;102035.69;;;15.07;38.97
71643;BME280;59438;45.014;39.006;2023-02-28T06:59:21;102032.31;;;15.02;39.14
71643;BME280;59438;45.014;39.006;2023-02-28T07:01:47;102030.66;;;15.00;39.46
71643;BME280;59438;45.014;39.006;2023-02-28T07:04:14;102017.06;;;14.84;39.60
71643;BME280;59438;45.014;39.006;2023-02-28T07:06:41;102028.59;;;14.83;39.49
71643;BME280;59438;45.014;39.006;2023-02-28T07:09:07;102029.41;;;14.85;39.95
71643;BME280;59438;45.014;39.006;2023-02-28T07:11:33;102033.06;;;14.81;39.88
71643;BME280;59438;45.014;39.006;2023-02-28T07:14:00;102036.53;;;14.83;40.03
71643;BME280;59438;45.014;39.006;2023-02-28T07:16:28;102025.94;;;14.83;40.51
71643;BME280;59438;45.014;39.006;2023-02-28T07:18:54;102029.50;;;14.82;40.37
71643;BME280;59438;45.014;39.006;2023-02-28T07:21:20;102027.91;;;14.76;40.19
71643;BME280;59438;45.014;39.006;2023-02-28T07:23:47;102034.34;;;14.69;40.74
71643;BME280;59438;45.014;39.006;2023-02-28T07:26:15;102025.66;;;14.64;40.71
71643;BME280;59438;45.014;39.006;2023-02-28T07:28:42;102030.09;;;14.63;40.80
71643;BME280;59438;45.014;39.006;2023-02-28T07:31:10;102038.91;;;14.64;40.78
71643;BME280;59438;45.014;39.006;2023-02-28T07:33:38;102019.94;;;14.49;41.07
71643;BME280;59438;45.014;39.006;2023-02-28T07:36:06;102012.72;;;14.56;41.16
71643;BME280;59438;45.014;39.006;2023-02-28T07:38:34;102031.66;;;14.70;41.05
71643;BME280;59438;45.014;39.006;2023-02-28T07:41:00;101997.78;;;14.54;41.01
71643;BME280;59438;45.014;39.006;2023-02-28T07:43:27;102033.19;;;14.76;41.52
71643;BME280;59438;45.014;39.006;2023-02-28T07:45:53;102041.00;;;14.81;41.40
71643;BME280;59438;45.014;39.006;2023-02-28T07:48:19;102032.09;;;14.83;41.23
71643;BME280;59438;45.014;39.006;2023-02-28T07:50:54;102017.00;;;14.87;41.60
71643;BME280;59438;45.014;39.006;2023-02-28T07:53:20;102029.06;;;14.94;41.53
71643;BME280;59438;45.014;39.006;2023-02-28T07:55:48;102037.72;;;14.99;41.50
71643;BME280;59438;45.014;39.006;2023-02-28T07:58:14;102045.47;;;15.05;41.69
71643;BME280;59438;45.014;39.006;2023-02-28T08:00:40;102045.34;;;15.08;41.41
71643;BME280;59438;45.014;39.006;2023-02-28T08:03:08;102043.47;;;15.12;41.55
71643;BME280;59438;45.014;39.006;2023-02-28T08:05:38;102042.19;;;15.24;41.50
71643;BME280;59438;45.014;39.006;2023-02-28T08:08:06;102044.53;;;15.31;42.39
71643;BME280;59438;45.014;39.006;2023-02-28T08:10:33;102045.25;;;15.37;42.12
71643;BME280;59438;45.014;39.006;2023-02-28T08:13:00;102046.16;;;15.36;42.18
71643;BME280;59438;45.014;39.006;2023-02-28T08:15:26;102049.69;;;15.36;42.37
71643;BME280;59438;45.014;39.006;2023-02-28T08:17:53;102028.81;;;15.27;41.98
71643;BME280;59438;45.014;39.006;2023-02-28T08:20:19;102054.16;;;15.34;42.67
71643;BME280;59438;45.014;39.006;2023-02-28T08:22:45;101947.28;;;14.63;42.69
71643;BME280;59438;45.014;39.006;2023-02-28T08:25:15;102017.63;;;15.19;43.37
71643;BME280;59438;45.014;39.006;2023-02-28T08:27:42;102033.00;;;15.34;42.78
71643;BME280;59438;45.014;39.006;2023-02-28T08:30:10;101995.25;;;15.27;43.35
71643;BME280;59438;45.014;39.006;2023-02-28T08:32:37;101954.69;;;15.03;43.01
71643;BME280;59438;45.014;39.006;2023-02-28T08:35:04;102049.66;;;15.61;43.02
71643;BME280;59438;45.014;39.006;2023-02-28T08:37:32;101873.47;;;14.55;43.29
71643;BME280;59438;45.014;39.006;2023-02-28T08:39:58;102088.53;;;15.61;43.36
71643;BME280;59438;45.014;39.006;2023-02-28T08:42:26;102030.91;;;15.17;43.96
71643;BME280;59438;45.014;39.006;2023-02-28T08:44:53;101999.50;;;15.08;43.83
71643;BME280;59438;45.014;39.006;2023-02-28T08:47:19;102042.63;;;15.35;44.26
71643;BME280;59438;45.014;39.006;2023-02-28T08:49:46;102069.50;;;15.49;44.02
71643;BME280;59438;45.014;39.006;2023-02-28T08:52:15;102053.28;;;15.34;44.22
71643;BME280;59438;45.014;39.006;2023-02-28T08:54:41;101992.59;;;15.04;44.46
71643;BME280;59438;45.014;39.006;2023-02-28T08:57:08;101906.41;;;14.45;44.75
71643;BME280;59438;45.014;39.006;2023-02-28T08:59:36;101925.53;;;14.53;45.49
71643;BME280;59438;45.014;39.006;2023-02-28T09:02:03;102005.66;;;15.08;44.78
71643;BME280;59438;45.014;39.006;2023-02-28T09:04:29;101936.91;;;14.55;45.36
71643;BME280;59438;45.014;39.006;2023-02-28T09:06:56;101881.44;;;14.28;45.28
71643;BME280;59438;45.014;39.006;2023-02-28T09:09:22;101919.25;;;14.57;45.94
71643;BME280;59438;45.014;39.006;2023-02-28T09:11:49;102039.34;;;15.28;45.76
71643;BME280;59438;45.014;39.006;2023-02-28T09:14:15;101977.34;;;14.85;45.82
71643;BME280;59438;45.014;39.006;2023-02-28T09:16:43;102003.59;;;14.91;46.18
71643;BME280;59438;45.014;39.006;2023-02-28T09:19:11;101955.53;;;14.52;46.76
71643;BME280;59438;45.014;39.006;2023-02-28T09:21:37;102060.09;;;15.16;46.33
71643;BME280;59438;45.014;39.006;2023-02-28T09:24:12;101954.41;;;14.61;47.34
71643;BME280;59438;45.014;39.006;2023-02-28T09:26:38;101989.13;;;14.77;46.57
71643;BME280;59438;45.014;39.006;2023-02-28T09:29:05;102042.06;;;15.02;46.93
71643;BME280;59438;45.014;39.006;2023-02-28T09:31:31;101871.78;;;14.01;46.94
71643;BME280;59438;45.014;39.006;2023-02-28T09:33:59;101977.50;;;14.54;47.26
71643;BME280;59438;45.014;39.006;2023-02-28T09:36:26;102023.59;;;14.74;47.22
71643;BME280;59438;45.014;39.006;2023-02-28T09:38:53;102032.38;;;14.74;47.06
71643;BME280;59438;45.014;39.006;2023-02-28T09:41:21;101983.94;;;14.45;47.56
71643;BME280;59438;45.014;39.006;2023-02-28T09:43:52;101859.56;;;13.70;48.21
71643;BME280;59438;45.014;39.006;2023-02-28T09:46:33;101939.84;;;14.21;47.49
71643;BME280;59438;45.014;39.006;2023-02-28T09:49:06;102037.69;;;14.74;47.89
71643;BME280;59438;45.014;39.006;2023-02-28T09:51:40;102004.88;;;14.51;48.56
71643;BME280;59438;45.014;39.006;2023-02-28T09:54:14;102036.31;;;14.62;48.03
71643;BME280;59438;45.014;39.006;2023-02-28T09:56:44;102009.44;;;14.48;47.52
71643;BME280;59438;45.014;39.006;2023-02-28T09:59:16;101955.00;;;14.14;48.63
71643;BME280;59438;45.014;39.006;2023-02-28T10:01:50;102027.00;;;14.49;48.26
71643;BME280;59438;45.014;39.006;2023-02-28T10:04:36;101995.81;;;14.34;49.70
71643;BME280;59438;45.014;39.006;2023-02-28T10:07:13;101929.13;;;13.97;49.59
71643;BME280;59438;45.014;39.006;2023-02-28T10:09:44;101907.50;;;13.86;49.32
71643;BME280;59438;45.014;39.006;2023-02-28T10:12:11;101888.69;;;13.67;49.05
71643;BME280;59438;45.014;39.006;2023-02-28T10:14:41;102021.53;;;14.55;49.52
71643;BME280;59438;45.014;39.006;2023-02-28T10:17:12;101992.38;;;14.30;49.96
71643;BME280;59438;45.014;39.006;2023-02-28T10:19:47;101985.88;;;14.40;50.18
71643;BME280;59438;45.014;39.006;2023-02-28T10:22:18;101972.22;;;14.27;49.99
71643;BME280;59438;45.014;39.006;2023-02-28T10:24:48;101990.31;;;14.40;49.49
71643;BME280;59438;45.014;39.006;2023-02-28T10:27:18;102020.38;;;14.64;49.48
71643;BME280;59438;45.014;39.006;2023-02-28T10:29:46;102004.84;;;14.53;49.86
71643;BME280;59438;45.014;39.006;2023-02-28T10:32:16;101928.91;;;14.05;50.84
71643;BME280;59438;45.014;39.006;2023-02-28T10:34:45;101987.56;;;14.43;50.04
71643;BME280;59438;45.014;39.006;2023-02-28T10:37:17;102005.78;;;14.52;49.87
71643;BME280;59438;45.014;39.006;2023-02-28T10:39:46;101916.53;;;14.05;49.95
71643;BME280;59438;45.014;39.006;2023-02-28T10:42:21;101952.66;;;14.33;50.29
71643;BME280;59438;45.014;39.006;2023-02-28T10:44:47;102002.69;;;14.66;49.78
71643;BME280;59438;45.014;39.006;2023-02-28T10:47:15;102003.88;;;14.57;50.41
71643;BME280;59438;45.014;39.006;2023-02-28T10:49:49;102007.31;;;14.59;51.02
71643;BME280;59438;45.014;39.006;2023-02-28T10:52:33;102020.38;;;14.64;50.62
71643;BME280;59438;45.014;39.006;2023-02-28T10:55:15;102002.44;;;14.45;50.73
71643;BME280;59438;45.014;39.006;2023-02-28T10:57:45;102004.03;;;14.51;50.16
71643;BME280;59438;45.014;39.006;2023-02-28T11:00:15;102002.03;;;14.59;50.73
71643;BME280;59438;45.014;39.006;2023-02-28T11:02:43;102002.88;;;14.60;50.50
71643;BME280;59438;45.014;39.006;2023-02-28T11:05:31;101932.81;;;14.20;50.73
71643;BME280;59438;45.014;39.006;2023-02-28T11:08:05;101820.44;;;13.55;50.53
71643;BME280;59438;45.014;39.006;2023-02-28T11:10:32;101908.78;;;14.01;50.56
71643;BME280;59438;45.014;39.006;2023-02-28T11:12:59;101963.16;;;14.35;51.01
71643;BME280;59438;45.014;39.006;2023-02-28T11:15:27;102006.72;;;14.49;51.38
71643;BME280;59438;45.014;39.006;2023-02-28T11:17:55;101947.06;;;14.14;51.18
71643;BME280;59438;45.014;39.006;2023-02-28T11:20:24;101969.72;;;14.23;51.44
71643;BME280;59438;45.014;39.006;2023-02-28T11:22:53;102003.69;;;14.35;51.96
71643;BME280;59438;45.014;39.006;2023-02-28T11:25:24;101954.69;;;13.97;52.03
71643;BME280;59438;45.014;39.006;2023-02-28T11:27:52;101820.53;;;13.22;51.92
71643;BME280;59438;45.014;39.006;2023-02-28T11:30:31;101991.41;;;14.32;52.49
71643;BME280;59438;45.014;39.006;2023-02-28T11:32:58;101989.66;;;14.33;51.84
71643;BME280;59438;45.014;39.006;2023-02-28T11:35:28;101991.94;;;14.44;52.28
71643;BME280;59438;45.014;39.006;2023-02-28T11:37:58;101842.34;;;13.58;52.17
71643;BME280;59438;45.014;39.006;2023-02-28T11:40:30;101971.53;;;14.47;52.20
71643;BME280;59438;45.014;39.006;2023-02-28T11:43:04;101997.34;;;14.67;52.16
71643;BME280;59438;45.014;39.006;2023-02-28T11:45:44;101929.13;;;14.25;51.74
71643;BME280;59438;45.014;39.006;2023-02-28T11:48:18;101929.88;;;14.29;51.69
71643;BME280;59438;45.014;39.006;2023-02-28T11:50:52;101993.91;;;14.65;51.35
71643;BME280;59438;45.014;39.006;2023-02-28T11:53:35;101999.22;;;14.64;52.17
71643;BME280;59438;45.014;39.006;2023-02-28T11:56:09;101954.81;;;14.20;51.99
71643;BME280;59438;45.014;39.006;2023-02-28T11:58:42;101948.50;;;14.24;51.79
71643;BME280;59438;45.014;39.006;2023-02-28T12:01:39;102007.28;;;14.61;52.11
71643;BME280;59438;45.014;39.006;2023-02-28T12:04:20;101972.22;;;14.27;51.79
71643;BME280;59438;45.014;39.006;2023-02-28T12:06:54;101969.66;;;14.24;52.13
71643;BME280;59438;45.014;39.006;2023-02-28T12:09:53;101997.31;;;14.41;52.04
71643;BME280;59438;45.014;39.006;2023-02-28T12:12:35;102008.81;;;14.40;52.30
71643;BME280;59438;45.014;39.006;2023-02-28T12:15:54;101948.91;;;14.12;52.01
71643;BME280;59438;45.014;39.006;2023-02-28T12:18:38;101971.31;;;14.00;53.40
71643;BME280;59438;45.014;39.006;2023-02-28T12:58:55;102002.94;;;13.74;57.37
71643;BME280;59438;45.014;39.006;2023-02-28T13:01:36;101991.09;;;13.87;56.71
71643;BME280;59438;45.014;39.006;2023-02-28T13:04:43;102010.88;;;14.02;56.39
71643;BME280;59438;45.014;39.006;2023-02-28T13:10:11;102006.56;;;13.99;55.02
71643;BME280;59438;45.014;39.006;2023-02-28T13:12:47;102006.66;;;13.96;55.53
71643;BME280;59438;45.014;39.006;2023-02-28T13:15:19;102012.06;;;13.91;55.44
71643;BME280;59438;45.014;39.006;2023-02-28T13:17:48;102022.88;;;13.84;55.38
71643;BME280;59438;45.014;39.006;2023-02-28T13:20:17;102013.53;;;13.72;55.08
71643;BME280;59438;45.014;39.006;2023-02-28T13:22:45;102015.69;;;13.59;55.11
71643;BME280;59438;45.014;39.006;2023-02-28T13:31:39;102015.03;;;13.18;55.16
71643;BME280;59438;45.014;39.006;2023-02-28T13:34:25;102000.69;;;12.96;54.96
71643;BME280;59438;45.014;39.006;2023-02-28T13:39:57;101996.69;;;12.81;55.75
71643;BME280;59438;45.014;39.006;2023-02-28T13:42:33;101982.81;;;12.73;56.88
71643;BME280;59438;45.014;39.006;2023-02-28T13:45:22;102001.28;;;12.73;57.03
71643;BME280;59438;45.014;39.006;2023-02-28T13:47:54;102002.44;;;12.61;56.42
71643;BME280;59438;45.014;39.006;2023-02-28T13:50:27;101970.41;;;12.42;56.89
71643;BME280;59438;45.014;39.006;2023-02-28T13:53:07;101982.38;;;12.55;57.10
71643;BME280;59438;45.014;39.006;2023-02-28T13:55:46;101998.28;;;12.52;57.17